Terminal Aerodrome Forecast
Issued by NWS Twin Cities, MN

Home | Current Version | Previous Version | Text Only | Print | Product List | Glossary On
Versions: 1 2 3 4 5 6 7 8 9 10 11 12 13 14 15 16 17 18 19 20 21 22 23 24 25
000
FTUS43 KMPX 301723
TAFMSP
TAF
KMSP 301723Z 3018/0124 05012G20KT P6SM -RA SCT020 BKN030 OVC045
     FM010000 05016G25KT 6SM -SHRA BR SCT015 OVC025
     FM010200 04014G24KT 6SM -SHRA BR SCT008 OVC015
     FM010400 03013G20KT 4SM -RA BR OVC008
     FM011500 35012KT 3SM -RA BR OVC008=

USA.gov is the U.S. government's official web portal to all federal, state and local government web resources and services.